Time;durP1;ratioP1;P1;durP2;ratioP2;P2;SDS_P1;SDS_P2;PMS_P1;PMS_P2;Temp;Humidity;BMP_temperature;BMP_pressure;BME280_temperature;BME280_humidity;BME280_pressure;Samples;Min_cycle;Max_cycle;Signal;HPM_P1;HPM_P2
2022/12/01 00:02:22;;;;;;;3.97;1.00;;;21.30;99.90;;;;;;5098649;28;20223;-79
2022/12/01 00:04:54;;;;;;;4.88;0.98;;;21.30;99.90;;;;;;5113691;28;20271;-78
2022/12/01 00:07:25;;;;;;;6.20;1.02;;;21.30;99.90;;;;;;5081126;28;20299;-78
2022/12/01 00:12:45;;;;;;;7.30;1.05;;;21.30;99.90;;;;;;5096837;28;20191;-76
2022/12/01 00:15:16;;;;;;;6.10;1.10;;;21.30;99.90;;;;;;5109185;28;20770;-78
2022/12/01 00:17:48;;;;;;;8.32;1.30;;;21.10;99.90;;;;;;5085619;28;20200;-79
2022/12/01 00:20:20;;;;;;;6.65;1.30;;;21.00;99.90;;;;;;5096502;28;20273;-79
2022/12/01 00:22:53;;;;;;;5.88;1.25;;;21.00;99.90;;;;;;5097193;28;20211;-80
2022/12/01 00:25:26;;;;;;;34.40;22.58;;;20.90;99.90;;;;;;5095976;28;20188;-80
2022/12/01 00:28:00;;;;;;;50.60;31.75;;;21.00;99.90;;;;;;5098570;28;20278;-81
2022/12/01 00:30:33;;;;;;;10.40;4.43;;;21.00;99.90;;;;;;5111000;28;20194;-81
2022/12/01 00:33:06;;;;;;;8.80;1.55;;;21.10;99.90;;;;;;5108452;28;20188;-80
2022/12/01 00:35:41;;;;;;;7.10;1.00;;;21.10;99.90;;;;;;5101241;28;20191;-81
2022/12/01 00:38:16;;;;;;;6.57;1.20;;;21.00;99.90;;;;;;5092665;28;20195;-78
2022/12/01 00:40:48;;;;;;;9.25;1.55;;;21.00;99.90;;;;;;5095105;28;20218;-81
2022/12/01 00:43:23;;;;;;;6.32;0.90;;;21.10;99.90;;;;;;5087313;28;20703;-80
2022/12/01 00:46:00;;;;;;;9.02;0.95;;;21.20;99.90;;;;;;5092721;28;20196;-86
2022/12/01 00:51:17;;;;;;;11.95;1.52;;;21.20;99.90;;;;;;5104461;28;20288;-84
2022/12/01 00:53:49;;;;;;;6.50;1.27;;;21.10;99.90;;;;;;5092735;28;20224;-83
2022/12/01 00:56:23;;;;;;;7.63;1.23;;;21.20;99.90;;;;;;5106739;28;20278;-83
2022/12/01 00:59:00;;;;;;;7.40;1.20;;;21.30;99.90;;;;;;5090886;28;20204;-85
2022/12/01 01:01:31;;;;;;;7.63;1.20;;;21.40;99.90;;;;;;5096737;28;20243;-83
2022/12/01 01:04:02;;;;;;;8.23;1.20;;;21.60;99.90;;;;;;5085548;28;20192;-83
2022/12/01 01:06:35;;;;;;;5.30;1.30;;;21.80;99.90;;;;;;5098980;28;20283;-83
2022/12/01 01:09:08;;;;;;;27.15;2.90;;;21.90;99.90;;;;;;5097024;28;20535;-84
2022/12/01 01:11:40;;;;;;;11.25;1.38;;;21.90;99.90;;;;;;5094525;28;20187;-81
2022/12/01 01:14:14;;;;;;;5.50;1.13;;;21.80;99.90;;;;;;5078671;28;20631;-81
2022/12/01 01:17:09;;;;;;;6.43;1.05;;;21.80;99.90;;;;;;5112124;28;20655;-83
2022/12/01 01:19:41;;;;;;;7.38;1.30;;;21.90;99.90;;;;;;5112245;28;20233;-80
2022/12/01 01:22:12;;;;;;;4.40;1.25;;;21.80;99.90;;;;;;5109179;28;20295;-78
2022/12/01 01:24:44;;;;;;;7.95;1.30;;;22.00;99.90;;;;;;5100374;28;20271;-79
2022/12/01 01:27:15;;;;;;;9.65;1.30;;;22.00;99.90;;;;;;5094018;28;20189;-82
2022/12/01 01:29:54;;;;;;;7.70;1.30;;;22.10;99.90;;;;;;5104838;28;20195;-81
2022/12/01 01:32:27;;;;;;;4.85;0.98;;;22.20;99.90;;;;;;5086756;28;20207;-81
2022/12/01 01:34:58;;;;;;;4.22;0.93;;;22.10;99.90;;;;;;5094785;28;20213;-82
2022/12/01 01:37:41;;;;;;;9.15;1.13;;;22.10;99.90;;;;;;5092324;28;20271;-84
2022/12/01 01:40:17;;;;;;;6.63;1.20;;;22.20;99.90;;;;;;5090432;28;20687;-84
2022/12/01 01:42:49;;;;;;;7.03;1.10;;;22.20;99.90;;;;;;5091643;28;20211;-80
2022/12/01 01:45:38;;;;;;;7.55;1.65;;;22.20;99.90;;;;;;5111601;28;20252;-79
2022/12/01 01:48:12;;;;;;;4.40;0.85;;;22.20;99.90;;;;;;5092977;28;20279;-81
2022/12/01 01:50:47;;;;;;;7.63;1.35;;;22.10;99.90;;;;;;5110099;28;20206;-80
2022/12/01 01:53:19;;;;;;;6.68;1.30;;;22.20;99.90;;;;;;5087010;28;20219;-82
2022/12/01 01:55:58;;;;;;;4.45;0.90;;;22.30;99.90;;;;;;5086603;28;20638;-88
2022/12/01 01:58:38;;;;;;;5.15;1.13;;;22.20;99.90;;;;;;5104053;28;20597;-83
2022/12/01 02:01:14;;;;;;;6.28;1.08;;;22.10;99.90;;;;;;5103847;28;20191;-82
2022/12/01 02:03:54;;;;;;;3.65;0.80;;;22.10;99.90;;;;;;5095947;28;20218;-83
2022/12/01 02:06:26;;;;;;;6.28;1.30;;;22.20;99.90;;;;;;5096307;28;20279;-82
2022/12/01 02:08:59;;;;;;;5.18;1.13;;;22.30;99.90;;;;;;5098883;28;20632;-83
2022/12/01 02:12:04;;;;;;;2.30;0.88;;;22.40;99.90;;;;;;5097386;28;20776;-79
2022/12/01 02:14:50;;;;;;;5.80;1.10;;;22.40;99.90;;;;;;5099469;28;20214;-82
2022/12/01 02:17:39;;;;;;;5.70;1.05;;;22.40;99.90;;;;;;5090338;28;20620;-83
2022/12/01 02:20:40;;;;;;;4.30;1.00;;;22.40;99.90;;;;;;5118565;28;20279;-83
2022/12/01 02:23:36;;;;;;;3.75;0.93;;;22.50;99.90;;;;;;5110692;28;20302;-81
2022/12/01 02:26:32;;;;;;;6.60;1.27;;;22.50;99.90;;;;;;5096549;28;20661;-83
2022/12/01 02:29:25;;;;;;;6.18;1.00;;;22.30;99.90;;;;;;5094720;28;20245;-81
2022/12/01 02:32:08;;;;;;;6.55;1.20;;;22.10;99.90;;;;;;5091779;28;20266;-83
2022/12/01 02:34:45;;;;;;;4.43;1.23;;;22.00;99.90;;;;;;5093715;28;20191;-81
2022/12/01 02:37:24;;;;;;;8.80;1.10;;;21.80;99.90;;;;;;5086450;28;20276;-81
2022/12/01 02:40:04;;;;;;;6.18;1.08;;;21.80;99.90;;;;;;5088648;28;20222;-83
2022/12/01 02:42:55;;;;;;;8.18;1.23;;;21.80;99.90;;;;;;5077615;28;20299;-84
2022/12/01 02:45:36;;;;;;;5.95;1.10;;;21.90;99.90;;;;;;5095185;28;20526;-84
2022/12/01 02:48:18;;;;;;;4.85;1.00;;;21.80;99.90;;;;;;5096858;28;20268;-82
2022/12/01 02:51:00;;;;;;;6.07;1.10;;;21.80;99.90;;;;;;5100941;28;20192;-87
2022/12/01 02:53:31;;;;;;;4.65;1.00;;;21.80;99.90;;;;;;5088508;28;20228;-82
2022/12/01 02:56:29;;;;;;;5.18;1.00;;;21.70;99.90;;;;;;5088387;28;20190;-84
2022/12/01 02:59:00;;;;;;;5.75;1.33;;;21.70;99.90;;;;;;5098520;28;20223;-83
2022/12/01 03:01:54;;;;;;;6.75;1.38;;;21.80;99.90;;;;;;5086887;28;20238;-82
2022/12/01 03:04:47;;;;;;;8.18;1.30;;;21.80;99.90;;;;;;5087199;28;20232;-84
2022/12/01 03:07:31;;;;;;;5.68;1.10;;;21.80;99.90;;;;;;5092619;28;20200;-80
2022/12/01 03:10:14;;;;;;;4.63;1.10;;;21.80;99.90;;;;;;5087701;28;20185;-83
2022/12/01 03:13:12;;;;;;;6.07;1.30;;;21.90;99.90;;;;;;5096992;28;20682;-80
2022/12/01 03:15:53;;;;;;;6.00;0.98;;;22.00;99.90;;;;;;5081953;28;20237;-80
2022/12/01 03:18:45;;;;;;;6.38;1.08;;;22.10;99.90;;;;;;5088536;28;20624;-79
2022/12/01 03:21:40;;;;;;;6.50;1.10;;;22.30;99.90;;;;;;5091788;28;20288;-89
2022/12/01 03:27:02;;;;;;;5.63;1.00;;;22.20;99.90;;;;;;5097638;28;20283;-81
2022/12/01 03:29:40;;;;;;;5.18;0.98;;;22.20;99.90;;;;;;5095599;28;20202;-82
2022/12/01 03:32:15;;;;;;;4.18;0.90;;;22.30;99.90;;;;;;5085331;28;20189;-79
2022/12/01 03:34:53;;;;;;;6.40;1.15;;;22.30;99.90;;;;;;5089146;28;20261;-82
2022/12/01 03:37:34;;;;;;;5.97;1.05;;;22.20;99.90;;;;;;5084339;28;20189;-81
2022/12/01 03:40:09;;;;;;;6.00;1.15;;;22.30;99.90;;;;;;5097623;28;20219;-83
2022/12/01 03:42:45;;;;;;;5.63;1.10;;;22.30;99.90;;;;;;5097519;28;20290;-79
2022/12/01 03:45:22;;;;;;;5.32;1.00;;;22.30;99.90;;;;;;5085725;28;20634;-77
2022/12/01 03:47:54;;;;;;;4.18;1.00;;;22.50;99.90;;;;;;5094697;28;20325;-81
2022/12/01 03:50:31;;;;;;;6.53;0.95;;;22.40;99.90;;;;;;5077489;28;20200;-77
2022/12/01 03:53:18;;;;;;;4.82;1.15;;;22.20;99.90;;;;;;5095168;28;20267;-83
2022/12/01 03:55:53;;;;;;;6.07;1.00;;;22.20;99.90;;;;;;5094288;28;20548;-83
2022/12/01 03:58:28;;;;;;;5.00;1.20;;;22.10;99.90;;;;;;5090529;28;20238;-82
2022/12/01 04:01:06;;;;;;;5.60;1.00;;;22.20;99.90;;;;;;5081937;28;20279;-83
2022/12/01 04:03:38;;;;;;;5.03;0.90;;;22.10;99.90;;;;;;5093741;28;20208;-79
2022/12/01 04:06:10;;;;;;;8.52;0.95;;;22.10;99.90;;;;;;5097980;28;20204;-80
2022/12/01 04:14:16;;;;;;;4.63;1.00;;;22.10;99.90;;;;;;5095102;28;20784;-79
2022/12/01 04:16:49;;;;;;;3.45;0.90;;;21.90;99.90;;;;;;5079440;28;20662;-80
2022/12/01 04:19:20;;;;;;;4.60;1.05;;;21.80;99.90;;;;;;5105841;28;20268;-79
2022/12/01 04:21:53;;;;;;;4.78;1.10;;;21.90;99.90;;;;;;5093998;28;20188;-81
2022/12/01 04:24:27;;;;;;;7.55;1.20;;;21.90;99.90;;;;;;5092167;28;20703;-79
2022/12/01 04:26:58;;;;;;;2.97;0.90;;;21.90;99.90;;;;;;5094272;28;20286;-79
2022/12/01 04:29:36;;;;;;;2.83;0.93;;;21.90;99.90;;;;;;5093787;28;20206;-82
2022/12/01 04:32:08;;;;;;;8.02;1.00;;;21.90;99.90;;;;;;5089122;28;20287;-80
2022/12/01 04:34:40;;;;;;;4.63;1.05;;;21.80;99.90;;;;;;5092831;28;20988;-80
2022/12/01 04:37:11;;;;;;;6.63;1.13;;;21.70;99.90;;;;;;5099985;28;20219;-81
2022/12/01 04:39:46;;;;;;;4.22;1.00;;;21.70;99.90;;;;;;5089475;28;20253;-80
2022/12/01 04:42:21;;;;;;;5.15;1.00;;;21.50;99.90;;;;;;5099100;28;20203;-81
2022/12/01 04:44:55;;;;;;;6.85;0.93;;;21.60;99.90;;;;;;5093042;28;20298;-79
2022/12/01 04:47:28;;;;;;;7.82;1.10;;;21.50;99.90;;;;;;5080604;28;20280;-80
2022/12/01 04:49:59;;;;;;;3.40;0.82;;;21.40;99.90;;;;;;5091744;28;20257;-78
2022/12/01 04:52:31;;;;;;;6.03;0.90;;;21.40;99.90;;;;;;5082593;28;20199;-80
2022/12/01 04:55:08;;;;;;;4.10;1.17;;;21.50;99.90;;;;;;5102311;28;20710;-81
2022/12/01 04:57:47;;;;;;;4.15;1.10;;;21.50;99.90;;;;;;5094540;28;20670;-84
2022/12/01 05:00:18;;;;;;;7.82;1.00;;;21.50;99.90;;;;;;5097342;28;20199;-79
2022/12/01 05:02:49;;;;;;;5.38;1.02;;;21.60;99.90;;;;;;5084344;28;20559;-78
2022/12/01 05:05:22;;;;;;;3.13;0.90;;;21.50;99.90;;;;;;5096714;28;20697;-79
2022/12/01 05:07:53;;;;;;;6.90;1.10;;;21.50;99.90;;;;;;5087710;28;20271;-80
2022/12/01 05:10:28;;;;;;;5.90;1.00;;;21.50;99.90;;;;;;5092722;28;20191;-79
2022/12/01 05:12:59;;;;;;;6.93;1.30;;;21.50;99.90;;;;;;5093250;28;20267;-77
2022/12/01 05:15:30;;;;;;;5.63;1.08;;;21.50;99.90;;;;;;5090912;28;20311;-78
2022/12/01 05:18:04;;;;;;;6.03;1.17;;;21.40;99.90;;;;;;5080818;28;20212;-78
2022/12/01 05:23:22;;;;;;;4.25;0.90;;;21.40;99.90;;;;;;5093026;28;20229;-81
2022/12/01 05:25:58;;;;;;;7.57;0.82;;;21.40;99.90;;;;;;5097606;28;20279;-78
2022/12/01 05:28:30;;;;;;;5.30;0.82;;;21.40;99.90;;;;;;5095849;28;20233;-78
2022/12/01 05:31:01;;;;;;;7.18;1.38;;;21.40;99.90;;;;;;5080595;28;20216;-79
2022/12/01 05:33:35;;;;;;;8.60;0.90;;;21.40;99.90;;;;;;5096986;28;20234;-83
2022/12/01 05:36:06;;;;;;;5.50;1.00;;;21.50;99.90;;;;;;5085088;28;20280;-79
2022/12/01 05:38:37;;;;;;;4.80;0.85;;;21.60;99.90;;;;;;5098800;28;20196;-80
2022/12/01 05:41:12;;;;;;;5.47;0.70;;;21.60;99.90;;;;;;5096042;28;20212;-81
2022/12/01 05:43:47;;;;;;;3.72;0.90;;;21.50;99.90;;;;;;5090971;28;20306;-87
2022/12/01 05:46:18;;;;;;;6.40;1.10;;;21.40;99.90;;;;;;5088473;28;20235;-89
2022/12/01 05:48:50;;;;;;;3.20;1.00;;;21.20;99.90;;;;;;5094256;28;20289;-79
2022/12/01 05:51:24;;;;;;;2.83;0.85;;;21.20;99.90;;;;;;5096870;28;20223;-82
2022/12/01 05:53:56;;;;;;;8.85;0.90;;;21.20;99.90;;;;;;5095039;28;20279;-77
2022/12/01 05:56:30;;;;;;;5.88;1.17;;;21.20;99.90;;;;;;5095541;28;21011;-81
2022/12/01 05:59:01;;;;;;;5.43;0.95;;;21.10;99.90;;;;;;5086666;28;20255;-79
2022/12/01 06:01:33;;;;;;;7.13;0.93;;;21.20;99.90;;;;;;5087217;28;20597;-79
2022/12/01 06:04:05;;;;;;;3.92;0.93;;;21.20;99.90;;;;;;5092807;28;20303;-80
2022/12/01 06:06:36;;;;;;;5.30;0.80;;;21.20;99.90;;;;;;5090871;28;20200;-80
2022/12/01 06:09:10;;;;;;;5.25;1.00;;;21.20;99.90;;;;;;5079964;28;20196;-80
2022/12/01 06:11:46;;;;;;;4.72;0.90;;;21.20;99.90;;;;;;5083657;28;20196;-79
2022/12/01 06:14:18;;;;;;;4.50;1.02;;;21.00;99.90;;;;;;5090706;28;20207;-81
2022/12/01 06:16:49;;;;;;;4.15;0.90;;;21.00;99.90;;;;;;5091477;28;20236;-80
2022/12/01 06:19:21;;;;;;;6.57;1.08;;;20.90;99.90;;;;;;5090560;28;20220;-78
2022/12/01 06:21:54;;;;;;;3.80;1.08;;;20.80;99.90;;;;;;5090058;28;20267;-78
2022/12/01 06:24:27;;;;;;;5.68;0.85;;;20.80;99.90;;;;;;5086622;28;20230;-80
2022/12/01 06:27:01;;;;;;;4.30;0.93;;;20.80;99.90;;;;;;5094546;28;20613;-80
2022/12/01 06:29:33;;;;;;;4.65;1.00;;;20.80;99.90;;;;;;5099730;28;20210;-79
2022/12/01 06:32:08;;;;;;;3.90;0.93;;;20.70;99.90;;;;;;5098671;28;20203;-80
2022/12/01 06:34:40;;;;;;;3.53;0.85;;;20.70;99.90;;;;;;5088691;28;20277;-80
2022/12/01 06:37:14;;;;;;;9.18;1.65;;;20.80;99.90;;;;;;5089177;28;20343;-85
2022/12/01 06:45:15;;;;;;;2.67;0.70;;;20.80;99.90;;;;;;5090260;28;20761;-78
2022/12/01 06:47:47;;;;;;;6.88;0.88;;;20.80;99.90;;;;;;5083431;28;20188;-80
2022/12/01 06:50:20;;;;;;;4.43;0.85;;;20.70;99.90;;;;;;5090230;28;20337;-79
2022/12/01 06:52:51;;;;;;;4.25;1.10;;;20.80;99.90;;;;;;5092340;28;20241;-78
2022/12/01 06:55:22;;;;;;;3.92;0.80;;;20.70;99.90;;;;;;5091930;28;20275;-78
2022/12/01 06:57:57;;;;;;;4.43;0.80;;;20.70;99.90;;;;;;5094594;28;20207;-80
2022/12/01 07:00:30;;;;;;;4.47;0.80;;;20.70;99.90;;;;;;5086140;28;20195;-81
2022/12/01 07:03:01;;;;;;;6.10;1.10;;;20.60;99.90;;;;;;5092552;28;20715;-78
2022/12/01 07:05:32;;;;;;;2.05;0.60;;;20.50;99.90;;;;;;5085970;28;20295;-77
2022/12/01 07:08:06;;;;;;;6.82;1.00;;;20.50;99.90;;;;;;5093554;28;20641;-81
2022/12/01 07:10:37;;;;;;;4.55;0.95;;;20.50;99.90;;;;;;5088429;28;20206;-80
2022/12/01 07:13:12;;;;;;;4.97;0.82;;;20.40;99.90;;;;;;5088321;28;20305;-78
2022/12/01 07:15:45;;;;;;;3.30;1.10;;;20.40;99.90;;;;;;5088591;28;20306;-78
2022/12/01 07:18:16;;;;;;;3.42;0.90;;;20.30;99.90;;;;;;5089987;28;20285;-77
2022/12/01 07:20:49;;;;;;;3.50;0.80;;;20.30;99.90;;;;;;5093361;28;20283;-79
2022/12/01 07:23:20;;;;;;;5.07;1.00;;;20.30;99.90;;;;;;5092049;28;20207;-78
2022/12/01 07:25:59;;;;;;;5.93;1.00;;;20.20;99.90;;;;;;5092628;28;20211;-74
2022/12/01 07:28:32;;;;;;;5.85;0.90;;;20.20;99.90;;;;;;5099504;28;20269;-73
2022/12/01 07:31:07;;;;;;;4.22;0.90;;;20.20;99.90;;;;;;5093888;28;20192;-71
2022/12/01 07:33:39;;;;;;;4.43;0.73;;;20.10;99.90;;;;;;5105722;28;20647;-72
2022/12/01 07:36:10;;;;;;;5.57;1.20;;;20.00;99.90;;;;;;5090899;22;20235;-71
2022/12/01 07:38:42;;;;;;;2.97;0.70;;;20.00;99.90;;;;;;5021173;28;20675;-74
2022/12/01 07:41:14;;;;;;;3.67;1.00;;;20.00;99.90;;;;;;5011118;28;20207;-74
2022/12/01 07:43:46;;;;;;;7.35;1.00;;;20.00;99.90;;;;;;5013626;28;20198;-75
2022/12/01 07:46:18;;;;;;;5.32;1.15;;;20.10;99.90;;;;;;5014844;28;20187;-74
2022/12/01 07:48:49;;;;;;;8.95;1.25;;;20.10;99.90;;;;;;5011083;28;20546;-75
2022/12/01 07:51:21;;;;;;;8.23;1.00;;;20.20;99.90;;;;;;5019451;28;20561;-73
2022/12/01 07:53:53;;;;;;;6.53;1.10;;;20.20;99.90;;;;;;5022125;28;20202;-72
2022/12/01 07:56:24;;;;;;;8.02;1.02;;;20.20;99.90;;;;;;5018670;28;20206;-74
2022/12/01 07:58:57;;;;;;;4.88;1.10;;;20.10;99.90;;;;;;5015063;28;20195;-73
2022/12/01 08:01:28;;;;;;;7.05;1.00;;;20.00;99.90;;;;;;5012700;28;20217;-73
2022/12/01 08:04:00;;;;;;;7.18;0.88;;;19.80;99.90;;;;;;5020474;28;20213;-74
2022/12/01 08:06:31;;;;;;;8.70;1.48;;;19.70;99.90;;;;;;5012571;28;20234;-74
2022/12/01 08:09:02;;;;;;;7.25;1.38;;;19.60;99.90;;;;;;5009007;28;20199;-74
2022/12/01 08:11:33;;;;;;;6.63;1.10;;;19.60;99.90;;;;;;5018970;28;20224;-71
2022/12/01 08:14:06;;;;;;;8.63;1.45;;;19.60;99.90;;;;;;5017428;28;20390;-73
2022/12/01 08:16:37;;;;;;;8.30;1.67;;;19.60;99.90;;;;;;5012781;28;20198;-73
2022/12/01 08:19:11;;;;;;;6.13;1.15;;;19.50;99.90;;;;;;5007146;28;20681;-75
2022/12/01 08:21:45;;;;;;;7.40;1.60;;;19.40;99.90;;;;;;5010746;28;20197;-73
2022/12/01 08:24:15;;;;;;;8.20;1.90;;;19.40;99.90;;;;;;5011494;28;20234;-74
2022/12/01 08:26:47;;;;;;;5.50;1.20;;;19.40;99.90;;;;;;5014146;28;20197;-74
2022/12/01 08:29:20;;;;;;;10.93;1.42;;;19.40;99.90;;;;;;5016143;28;20732;-73
2022/12/01 08:31:51;;;;;;;8.60;1.60;;;19.40;99.90;;;;;;5020438;28;20700;-74
2022/12/01 08:34:21;;;;;;;7.95;1.63;;;19.40;99.90;;;;;;5022310;28;20204;-74
2022/12/01 08:36:53;;;;;;;6.85;1.65;;;19.40;99.90;;;;;;5015566;28;20234;-74
2022/12/01 08:39:24;;;;;;;7.03;1.35;;;19.30;99.90;;;;;;5010016;28;20249;-73
2022/12/01 08:41:54;;;;;;;6.43;1.38;;;19.30;99.90;;;;;;5019061;28;20199;-73
2022/12/01 08:44:27;;;;;;;8.88;1.48;;;19.20;99.90;;;;;;5023798;28;20217;-72
2022/12/01 08:46:58;;;;;;;7.65;1.30;;;19.20;99.90;;;;;;5017716;28;20194;-73
2022/12/01 08:49:29;;;;;;;7.40;1.55;;;19.20;99.90;;;;;;5023114;28;20703;-73
2022/12/01 08:52:00;;;;;;;7.20;1.27;;;19.10;99.90;;;;;;5023698;28;20205;-71
2022/12/01 08:54:31;;;;;;;6.35;1.08;;;19.10;99.90;;;;;;5023437;28;20191;-73
2022/12/01 08:57:04;;;;;;;7.25;1.40;;;19.00;99.90;;;;;;5012474;28;20201;-73
2022/12/01 08:59:37;;;;;;;3.85;1.10;;;19.00;99.90;;;;;;5012415;28;20278;-74
2022/12/01 09:02:09;;;;;;;5.95;1.20;;;19.00;99.90;;;;;;5025417;28;20202;-73
2022/12/01 09:04:40;;;;;;;6.65;1.50;;;18.90;99.90;;;;;;5013071;28;20305;-73
2022/12/01 09:07:17;;;;;;;5.05;1.40;;;18.90;99.90;;;;;;5014681;28;20198;-74
2022/12/01 09:09:51;;;;;;;8.93;1.63;;;18.90;99.90;;;;;;5011879;28;20198;-74
2022/12/01 09:12:22;;;;;;;8.05;1.20;;;18.90;99.90;;;;;;5015833;28;20194;-73
2022/12/01 09:14:55;;;;;;;6.22;1.25;;;18.90;99.90;;;;;;5015669;28;20201;-73
2022/12/01 09:17:26;;;;;;;7.93;1.35;;;18.80;99.90;;;;;;5020898;28;20203;-73
2022/12/01 09:19:57;;;;;;;10.05;1.65;;;18.80;99.90;;;;;;5017770;28;20192;-74
2022/12/01 09:22:28;;;;;;;6.15;1.23;;;18.80;99.90;;;;;;5022203;28;20592;-73
2022/12/01 09:24:58;;;;;;;8.27;1.40;;;18.80;99.90;;;;;;5013523;28;20707;-74
2022/12/01 09:27:29;;;;;;;4.63;1.15;;;18.70;99.90;;;;;;5022558;28;20207;-72
2022/12/01 09:30:02;;;;;;;6.75;1.17;;;18.80;99.90;;;;;;5021376;28;20201;-73
2022/12/01 09:32:32;;;;;;;8.30;1.60;;;18.70;99.90;;;;;;5021671;28;20234;-73
2022/12/01 09:35:03;;;;;;;7.30;1.55;;;18.70;99.90;;;;;;5013926;28;20555;-73
2022/12/01 09:37:34;;;;;;;5.38;1.20;;;18.70;99.90;;;;;;5014320;28;20233;-72
2022/12/01 09:40:05;;;;;;;4.88;1.00;;;18.70;99.90;;;;;;5015497;28;20286;-74
2022/12/01 09:42:36;;;;;;;3.05;1.10;;;18.60;99.90;;;;;;5016807;28;20273;-73
2022/12/01 09:45:19;;;;;;;6.95;1.40;;;18.60;99.90;;;;;;5013054;28;20222;-75
2022/12/01 09:47:50;;;;;;;8.07;1.63;;;18.60;99.90;;;;;;5013367;28;20194;-74
2022/12/01 09:50:27;;;;;;;5.75;1.10;;;18.60;99.90;;;;;;5015222;28;20662;-75
2022/12/01 09:53:02;;;;;;;8.38;1.50;;;18.60;99.90;;;;;;5016675;28;20198;-76
2022/12/01 09:55:35;;;;;;;3.53;1.10;;;18.50;99.90;;;;;;5017532;28;20201;-76
2022/12/01 09:58:15;;;;;;;5.80;1.30;;;18.50;99.90;;;;;;5017321;28;20226;-75
2022/12/01 10:00:50;;;;;;;6.93;1.30;;;18.50;99.90;;;;;;5010267;28;20186;-76
2022/12/01 10:03:31;;;;;;;5.72;1.35;;;18.50;99.90;;;;;;5008692;28;20198;-76
2022/12/01 10:06:07;;;;;;;4.95;1.20;;;18.50;99.90;;;;;;5005454;28;20227;-76
2022/12/01 10:08:44;;;;;;;2.78;1.20;;;18.40;99.90;;;;;;5006858;28;20198;-76
2022/12/01 10:11:21;;;;;;;5.70;1.20;;;18.40;99.90;;;;;;5013307;28;20280;-76
2022/12/01 10:13:52;;;;;;;4.75;1.30;;;18.40;99.90;;;;;;5009106;28;20195;-75
2022/12/01 10:16:28;;;;;;;4.13;1.05;;;18.40;99.90;;;;;;5013918;28;20282;-74
2022/12/01 10:19:05;;;;;;;2.92;1.13;;;18.40;99.90;;;;;;5014047;28;20187;-74
2022/12/01 10:21:51;;;;;;;4.05;1.13;;;18.30;99.90;;;;;;5012044;28;20213;-74
2022/12/01 10:24:35;;;;;;;9.13;1.40;;;18.30;99.90;;;;;;5009907;28;20203;-74
2022/12/01 10:27:16;;;;;;;7.30;1.40;;;18.30;99.90;;;;;;5012435;28;20208;-74
2022/12/01 10:29:50;;;;;;;3.45;1.00;;;18.30;99.90;;;;;;5009469;28;20609;-74
2022/12/01 10:32:31;;;;;;;5.50;1.20;;;18.30;99.90;;;;;;5015052;28;20694;-74
2022/12/01 10:35:03;;;;;;;3.25;0.90;;;18.30;99.90;;;;;;5015406;28;20250;-76
2022/12/01 10:37:34;;;;;;;4.80;1.20;;;18.30;99.90;;;;;;5012706;28;20227;-75
2022/12/01 10:40:05;;;;;;;4.85;1.17;;;18.20;99.90;;;;;;5011457;28;20237;-74
2022/12/01 10:42:42;;;;;;;4.40;1.00;;;18.30;99.90;;;;;;5011432;28;20676;-75
2022/12/01 10:45:19;;;;;;;5.65;1.27;;;18.20;99.90;;;;;;5011645;28;20305;-73
2022/12/01 10:48:19;;;;;;;6.68;1.42;;;18.20;99.90;;;;;;5009493;28;20191;-74
2022/12/01 10:50:52;;;;;;;5.38;1.30;;;18.20;99.90;;;;;;4990651;28;20207;-75
2022/12/01 10:53:31;;;;;;;4.72;1.20;;;18.20;99.90;;;;;;5014070;28;20195;-74
2022/12/01 10:56:10;;;;;;;5.22;1.13;;;18.20;99.90;;;;;;5012060;28;20202;-74
2022/12/01 10:58:47;;;;;;;5.93;1.45;;;18.20;99.90;;;;;;5014582;28;20686;-74
2022/12/01 11:01:23;;;;;;;5.20;1.33;;;18.20;99.90;;;;;;5014872;28;20209;-74
2022/12/01 11:04:03;;;;;;;3.45;1.00;;;18.20;99.90;;;;;;5008752;28;20191;-73
2022/12/01 11:06:34;;;;;;;7.80;1.50;;;18.10;99.90;;;;;;5014639;28;20221;-73
2022/12/01 11:09:06;;;;;;;6.47;1.20;;;18.20;99.90;;;;;;5012428;28;20700;-74
2022/12/01 11:11:39;;;;;;;3.58;1.10;;;18.20;99.90;;;;;;5013145;28;20683;-72
2022/12/01 11:14:20;;;;;;;5.97;1.33;;;18.10;99.90;;;;;;5005897;28;20231;-77
2022/12/01 11:16:53;;;;;;;5.30;1.00;;;18.10;99.90;;;;;;5010879;28;20285;-74
2022/12/01 11:19:33;;;;;;;6.28;1.70;;;18.10;99.90;;;;;;5010857;28;20289;-76
2022/12/01 11:22:20;;;;;;;4.90;1.00;;;18.10;99.90;;;;;;5013178;28;20669;-76
2022/12/01 11:25:03;;;;;;;5.00;1.40;;;18.10;99.90;;;;;;5014295;28;20191;-73
2022/12/01 11:27:37;;;;;;;4.68;1.00;;;18.10;99.90;;;;;;5013058;28;20248;-77
2022/12/01 11:30:22;;;;;;;5.97;1.23;;;18.10;99.90;;;;;;5010805;28;20213;-76
2022/12/01 11:32:56;;;;;;;4.88;1.20;;;18.00;99.90;;;;;;5013905;28;20245;-76
2022/12/01 11:35:31;;;;;;;3.75;0.90;;;18.00;99.90;;;;;;5020519;28;20709;-78
2022/12/01 11:38:05;;;;;;;4.22;1.40;;;18.00;99.90;;;;;;5009736;28;20278;-77
2022/12/01 11:40:46;;;;;;;5.32;1.25;;;18.00;99.90;;;;;;5013688;28;20190;-78
2022/12/01 11:43:28;;;;;;;5.80;1.30;;;18.00;99.90;;;;;;5011055;28;20209;-77
2022/12/01 11:46:01;;;;;;;6.00;1.13;;;18.00;99.90;;;;;;5014111;28;20302;-76
2022/12/01 11:48:33;;;;;;;6.38;1.48;;;18.00;99.90;;;;;;5014217;28;20282;-79
2022/12/01 11:51:08;;;;;;;5.70;1.15;;;17.90;99.90;;;;;;5012957;28;20238;-77
2022/12/01 11:53:41;;;;;;;5.55;1.00;;;17.90;99.90;;;;;;5013812;28;20187;-77
2022/12/01 11:56:22;;;;;;;5.32;1.08;;;17.90;99.90;;;;;;5013738;28;20193;-78
2022/12/01 11:58:56;;;;;;;4.78;1.00;;;17.90;99.90;;;;;;5013904;28;20187;-77
2022/12/01 12:01:40;;;;;;;4.70;1.08;;;17.90;99.90;;;;;;5013693;28;20191;-78
2022/12/01 12:04:24;;;;;;;3.90;1.08;;;17.90;99.90;;;;;;5006184;28;20664;-77
2022/12/01 12:07:04;;;;;;;5.10;1.10;;;17.90;99.90;;;;;;5013306;28;20219;-77
2022/12/01 12:09:46;;;;;;;9.02;1.30;;;17.90;99.90;;;;;;5020508;28;20202;-76
2022/12/01 12:12:29;;;;;;;3.65;1.00;;;17.90;99.90;;;;;;5006695;28;20194;-77
2022/12/01 12:15:13;;;;;;;3.45;0.95;;;17.80;99.90;;;;;;5017942;28;20722;-76
2022/12/01 12:17:56;;;;;;;5.55;1.25;;;17.80;99.90;;;;;;5013958;28;20315;-77
2022/12/01 12:20:42;;;;;;;3.05;0.93;;;17.80;99.90;;;;;;5012653;28;20278;-78
2022/12/01 12:23:38;;;;;;;4.35;0.90;;;17.80;99.90;;;;;;5013287;28;20191;-77
2022/12/01 12:26:17;;;;;;;4.28;1.10;;;17.80;99.90;;;;;;5013253;28;20241;-77
2022/12/01 12:29:02;;;;;;;7.10;1.13;;;17.80;99.90;;;;;;5013147;28;20210;-77
2022/12/01 12:31:44;;;;;;;3.13;1.10;;;17.90;99.90;;;;;;5008012;28;20187;-77
2022/12/01 12:34:30;;;;;;;3.53;1.25;;;17.70;99.90;;;;;;5013934;28;20572;-80
2022/12/01 12:37:11;;;;;;;6.07;1.23;;;17.70;99.90;;;;;;5018444;28;20305;-77
2022/12/01 12:40:00;;;;;;;4.45;1.20;;;17.70;99.90;;;;;;5013035;28;20199;-77
2022/12/01 12:42:44;;;;;;;6.10;1.20;;;17.70;99.90;;;;;;5019112;28;20226;-78
2022/12/01 12:45:24;;;;;;;5.60;1.20;;;17.80;99.90;;;;;;5012883;28;20195;-77
2022/12/01 12:48:14;;;;;;;8.02;1.60;;;17.80;99.90;;;;;;5013443;28;20193;-77
2022/12/01 12:50:54;;;;;;;4.93;1.45;;;17.80;99.90;;;;;;5010049;28;20642;-77
2022/12/01 12:53:31;;;;;;;5.35;1.17;;;17.90;99.90;;;;;;5010569;28;20182;-77
2022/12/01 12:56:08;;;;;;;4.00;0.90;;;17.80;99.90;;;;;;5009971;28;20195;-77
2022/12/01 12:58:43;;;;;;;5.30;1.30;;;17.90;99.90;;;;;;5011858;28;20195;-76
2022/12/01 13:01:20;;;;;;;6.18;1.50;;;17.90;99.90;;;;;;5011979;28;20650;-76
2022/12/01 13:03:57;;;;;;;5.57;1.20;;;17.80;99.90;;;;;;5010973;28;20198;-78
2022/12/01 13:06:34;;;;;;;3.70;1.20;;;17.80;99.90;;;;;;5012055;28;20727;-78
2022/12/01 13:09:12;;;;;;;8.40;1.40;;;17.80;99.90;;;;;;5009792;28;20679;-77
2022/12/01 13:11:49;;;;;;;5.97;1.40;;;17.80;99.90;;;;;;5013010;28;20195;-77
2022/12/01 13:14:25;;;;;;;8.25;1.30;;;17.80;99.90;;;;;;5012479;28;20198;-77
2022/12/01 13:16:58;;;;;;;5.55;1.20;;;17.80;99.90;;;;;;5012806;28;20194;-77
2022/12/01 13:19:31;;;;;;;5.60;1.38;;;17.80;99.90;;;;;;5012627;28;20183;-78
2022/12/01 13:22:03;;;;;;;3.38;1.27;;;17.80;99.90;;;;;;5012831;28;20195;-77
2022/12/01 13:24:34;;;;;;;4.65;1.20;;;17.80;99.90;;;;;;5005433;28;20551;-79
2022/12/01 13:27:18;;;;;;;4.13;1.02;;;17.80;99.90;;;;;;5012554;28;20211;-78
2022/12/01 13:29:51;;;;;;;6.55;1.50;;;17.80;99.90;;;;;;5007914;28;20238;-77
2022/12/01 13:32:32;;;;;;;4.90;1.42;;;17.70;99.90;;;;;;5012331;28;20281;-77
2022/12/01 13:35:05;;;;;;;6.32;1.55;;;17.70;99.90;;;;;;5016869;28;20681;-76
2022/12/01 13:37:38;;;;;;;10.55;1.65;;;17.70;99.90;;;;;;5072579;22;20233;-80
2022/12/01 13:40:21;;;;;;;4.88;1.38;;;17.70;99.90;;;;;;5041390;28;20200;-80
2022/12/01 13:43:01;;;;;;;7.38;1.35;;;17.70;99.90;;;;;;5040606;28;20206;-80
2022/12/01 13:45:35;;;;;;;9.80;1.50;;;17.70;99.90;;;;;;5040425;28;20209;-81
2022/12/01 13:48:07;;;;;;;5.50;1.40;;;17.70;99.90;;;;;;5044660;28;20208;-80
2022/12/01 13:51:04;;;;;;;4.40;1.30;;;17.70;99.90;;;;;;5037997;28;20206;-80
2022/12/01 13:53:37;;;;;;;5.93;1.42;;;17.70;99.90;;;;;;5041398;28;20201;-81